sensor_id;sensor_type;location;lat;lon;timestamp;pressure;altitude;pressure_sealevel;temperature;humidity
43071;BME280;36278;47.952;21.714;2022-08-20T00:00:07;99778.31;;;23.95;67.94
43071;BME280;36278;47.952;21.714;2022-08-20T00:02:47;99787.88;;;23.91;67.10
43071;BME280;36278;47.952;21.714;2022-08-20T00:05:14;99791.88;;;23.82;67.72
43071;BME280;36278;47.952;21.714;2022-08-20T00:07:41;99787.53;;;23.74;68.75
43071;BME280;36278;47.952;21.714;2022-08-20T00:10:08;99797.34;;;23.68;69.28
43071;BME280;36278;47.952;21.714;2022-08-20T00:12:35;99802.16;;;23.60;69.94
43071;BME280;36278;47.952;21.714;2022-08-20T00:15:02;99807.53;;;23.53;70.24
43071;BME280;36278;47.952;21.714;2022-08-20T00:17:28;99808.22;;;23.42;70.62
43071;BME280;36278;47.952;21.714;2022-08-20T00:20:01;99816.53;;;23.40;70.74
43071;BME280;36278;47.952;21.714;2022-08-20T00:22:27;99823.59;;;23.35;71.09
43071;BME280;36278;47.952;21.714;2022-08-20T00:24:52;99806.34;;;23.29;71.47
43071;BME280;36278;47.952;21.714;2022-08-20T00:27:17;99808.88;;;23.24;72.07
43071;BME280;36278;47.952;21.714;2022-08-20T00:29:43;99814.50;;;23.23;71.92
43071;BME280;36278;47.952;21.714;2022-08-20T00:32:08;99814.06;;;23.19;71.82
43071;BME280;36278;47.952;21.714;2022-08-20T00:34:34;99823.44;;;23.10;72.04
43071;BME280;36278;47.952;21.714;2022-08-20T00:36:59;99825.53;;;23.08;72.01
43071;BME280;36278;47.952;21.714;2022-08-20T00:39:24;99823.22;;;23.05;72.65
43071;BME280;36278;47.952;21.714;2022-08-20T00:41:50;99827.41;;;23.07;72.45
43071;BME280;36278;47.952;21.714;2022-08-20T00:44:18;99818.03;;;23.03;72.66
43071;BME280;36278;47.952;21.714;2022-08-20T00:46:46;99832.19;;;22.99;73.01
43071;BME280;36278;47.952;21.714;2022-08-20T00:49:18;99821.38;;;22.92;73.06
43071;BME280;36278;47.952;21.714;2022-08-20T00:51:56;99824.47;;;22.96;73.02
43071;BME280;36278;47.952;21.714;2022-08-20T00:54:29;99815.97;;;22.99;72.80
43071;BME280;36278;47.952;21.714;2022-08-20T00:57:08;99822.22;;;22.99;72.42
43071;BME280;36278;47.952;21.714;2022-08-20T00:59:36;99827.63;;;22.99;72.54
43071;BME280;36278;47.952;21.714;2022-08-20T01:02:06;99823.88;;;23.00;72.08
43071;BME280;36278;47.952;21.714;2022-08-20T01:04:34;99808.50;;;23.01;71.99
43071;BME280;36278;47.952;21.714;2022-08-20T01:07:02;99801.00;;;23.03;71.66
43071;BME280;36278;47.952;21.714;2022-08-20T01:09:29;99798.31;;;23.03;71.63
43071;BME280;36278;47.952;21.714;2022-08-20T01:11:55;99802.25;;;23.07;71.16
43071;BME280;36278;47.952;21.714;2022-08-20T01:14:21;99803.91;;;23.08;70.97
43071;BME280;36278;47.952;21.714;2022-08-20T01:16:59;99791.25;;;23.08;70.99
43071;BME280;36278;47.952;21.714;2022-08-20T01:19:31;99786.06;;;23.07;71.13
43071;BME280;36278;47.952;21.714;2022-08-20T01:21:58;99783.34;;;23.07;71.27
43071;BME280;36278;47.952;21.714;2022-08-20T01:24:42;99777.72;;;23.02;71.24
43071;BME280;36278;47.952;21.714;2022-08-20T01:27:08;99773.38;;;23.01;71.19
43071;BME280;36278;47.952;21.714;2022-08-20T01:29:36;99768.19;;;23.06;71.23
43071;BME280;36278;47.952;21.714;2022-08-20T01:32:05;99760.06;;;23.06;71.11
43071;BME280;36278;47.952;21.714;2022-08-20T01:34:30;99761.94;;;23.05;70.82
43071;BME280;36278;47.952;21.714;2022-08-20T01:36:57;99750.72;;;23.08;70.87
43071;BME280;36278;47.952;21.714;2022-08-20T01:39:32;99745.53;;;23.07;70.72
43071;BME280;36278;47.952;21.714;2022-08-20T01:44:40;99732.63;;;23.09;70.67
43071;BME280;36278;47.952;21.714;2022-08-20T01:47:13;99716.66;;;23.01;70.79
43071;BME280;36278;47.952;21.714;2022-08-20T01:49:45;99729.31;;;23.07;70.72
43071;BME280;36278;47.952;21.714;2022-08-20T01:53:00;99732.03;;;23.07;70.49
43071;BME280;36278;47.952;21.714;2022-08-20T01:55:06;99719.13;;;23.02;70.64
43071;BME280;36278;47.952;21.714;2022-08-20T01:57:32;99718.50;;;23.07;70.39
43071;BME280;36278;47.952;21.714;2022-08-20T01:59:59;99727.00;;;23.10;71.03
43071;BME280;36278;47.952;21.714;2022-08-20T02:02:26;99729.94;;;23.09;70.67
43071;BME280;36278;47.952;21.714;2022-08-20T02:04:52;99737.59;;;23.12;70.62
43071;BME280;36278;47.952;21.714;2022-08-20T02:07:20;99735.94;;;23.04;70.77
43071;BME280;36278;47.952;21.714;2022-08-20T02:09:47;99736.59;;;23.06;70.82
43071;BME280;36278;47.952;21.714;2022-08-20T02:12:14;99731.41;;;22.98;71.51
43071;BME280;36278;47.952;21.714;2022-08-20T02:14:45;99721.00;;;22.95;71.70
43071;BME280;36278;47.952;21.714;2022-08-20T02:17:12;99716.03;;;22.99;71.44
43071;BME280;36278;47.952;21.714;2022-08-20T02:19:48;99715.00;;;23.00;71.24
43071;BME280;36278;47.952;21.714;2022-08-20T02:22:22;99710.41;;;23.00;71.20
43071;BME280;36278;47.952;21.714;2022-08-20T02:24:48;99708.34;;;22.96;71.26
43071;BME280;36278;47.952;21.714;2022-08-20T02:27:14;99716.66;;;22.94;71.56
43071;BME280;36278;47.952;21.714;2022-08-20T02:29:40;99717.69;;;22.93;71.57
43071;BME280;36278;47.952;21.714;2022-08-20T02:32:06;99717.50;;;22.88;72.18
43071;BME280;36278;47.952;21.714;2022-08-20T02:34:33;99708.78;;;22.86;72.36
43071;BME280;36278;47.952;21.714;2022-08-20T02:37:00;99708.34;;;22.82;72.34
43071;BME280;36278;47.952;21.714;2022-08-20T02:39:25;99718.31;;;22.82;72.36
43071;BME280;36278;47.952;21.714;2022-08-20T02:41:52;99717.06;;;22.78;72.05
43071;BME280;36278;47.952;21.714;2022-08-20T02:44:17;99722.25;;;22.79;72.30
43071;BME280;36278;47.952;21.714;2022-08-20T02:46:46;99711.88;;;22.76;72.49
43071;BME280;36278;47.952;21.714;2022-08-20T02:49:15;99720.41;;;22.73;72.66
43071;BME280;36278;47.952;21.714;2022-08-20T02:51:42;99715.22;;;22.65;73.18
43071;BME280;36278;47.952;21.714;2022-08-20T02:54:07;99716.66;;;22.61;73.07
43071;BME280;36278;47.952;21.714;2022-08-20T02:56:33;99727.69;;;22.53;73.38
43071;BME280;36278;47.952;21.714;2022-08-20T02:58:58;99718.97;;;22.51;73.37
43071;BME280;36278;47.952;21.714;2022-08-20T03:01:24;99727.88;;;22.45;74.40
43071;BME280;36278;47.952;21.714;2022-08-20T03:03:49;99737.63;;;22.46;74.32
43071;BME280;36278;47.952;21.714;2022-08-20T03:06:15;99733.91;;;22.47;74.00
43071;BME280;36278;47.952;21.714;2022-08-20T03:08:41;99734.31;;;22.44;74.42
43071;BME280;36278;47.952;21.714;2022-08-20T03:11:07;99736.81;;;22.32;74.40
43071;BME280;36278;47.952;21.714;2022-08-20T03:13:33;99731.41;;;22.25;74.98
43071;BME280;36278;47.952;21.714;2022-08-20T03:16:00;99733.06;;;22.20;75.07
43071;BME280;36278;47.952;21.714;2022-08-20T03:18:30;99735.34;;;22.16;75.28
43071;BME280;36278;47.952;21.714;2022-08-20T03:20:56;99728.69;;;22.12;75.61
43071;BME280;36278;47.952;21.714;2022-08-20T03:23:22;99727.66;;;22.13;75.60
43071;BME280;36278;47.952;21.714;2022-08-20T03:25:48;99709.19;;;22.10;75.77
43071;BME280;36278;47.952;21.714;2022-08-20T03:28:14;99714.94;;;22.07;75.99
43071;BME280;36278;47.952;21.714;2022-08-20T03:30:40;99708.72;;;22.00;76.65
43071;BME280;36278;47.952;21.714;2022-08-20T03:33:06;99713.47;;;21.98;76.55
43071;BME280;36278;47.952;21.714;2022-08-20T03:35:33;99731.53;;;22.04;76.66
43071;BME280;36278;47.952;21.714;2022-08-20T03:37:59;99731.75;;;22.02;76.84
43071;BME280;36278;47.952;21.714;2022-08-20T03:40:28;99746.91;;;22.03;76.63
43071;BME280;36278;47.952;21.714;2022-08-20T03:42:55;99754.56;;;22.06;76.61
43071;BME280;36278;47.952;21.714;2022-08-20T03:45:21;99755.41;;;22.07;76.72
43071;BME280;36278;47.952;21.714;2022-08-20T03:47:48;99757.91;;;22.02;76.85
43071;BME280;36278;47.952;21.714;2022-08-20T03:50:18;99755.19;;;21.95;77.28
43071;BME280;36278;47.952;21.714;2022-08-20T03:52:43;99743.78;;;21.93;77.42
43071;BME280;36278;47.952;21.714;2022-08-20T03:55:09;99753.31;;;21.96;77.37
43071;BME280;36278;47.952;21.714;2022-08-20T03:57:43;99737.38;;;22.01;77.29
43071;BME280;36278;47.952;21.714;2022-08-20T04:00:09;99741.72;;;22.02;77.47
43071;BME280;36278;47.952;21.714;2022-08-20T04:02:35;99738.38;;;22.06;77.35
43071;BME280;36278;47.952;21.714;2022-08-20T04:05:01;99736.53;;;22.07;77.25
43071;BME280;36278;47.952;21.714;2022-08-20T04:07:26;99748.84;;;22.16;77.05
43071;BME280;36278;47.952;21.714;2022-08-20T04:09:55;99741.56;;;22.17;76.90
43071;BME280;36278;47.952;21.714;2022-08-20T04:12:22;99738.06;;;22.16;76.98
43071;BME280;36278;47.952;21.714;2022-08-20T04:14:48;99740.53;;;22.18;77.30
43071;BME280;36278;47.952;21.714;2022-08-20T04:17:16;99739.50;;;22.19;77.24
43071;BME280;36278;47.952;21.714;2022-08-20T04:19:42;99736.38;;;22.28;76.80
43071;BME280;36278;47.952;21.714;2022-08-20T04:22:09;99728.06;;;22.30;77.33
43071;BME280;36278;47.952;21.714;2022-08-20T04:24:38;99738.66;;;22.31;76.96
43071;BME280;36278;47.952;21.714;2022-08-20T04:27:04;99741.19;;;22.33;77.13
43071;BME280;36278;47.952;21.714;2022-08-20T04:29:31;99725.00;;;22.33;76.91
43071;BME280;36278;47.952;21.714;2022-08-20T04:31:57;99732.06;;;22.41;76.76
43071;BME280;36278;47.952;21.714;2022-08-20T04:34:24;99732.03;;;22.47;76.59
43071;BME280;36278;47.952;21.714;2022-08-20T04:36:50;99729.56;;;22.52;76.32
43071;BME280;36278;47.952;21.714;2022-08-20T04:39:15;99721.84;;;22.56;76.30
43071;BME280;36278;47.952;21.714;2022-08-20T04:41:42;99715.84;;;22.60;76.13
43071;BME280;36278;47.952;21.714;2022-08-20T04:44:09;99720.41;;;22.66;76.02
43071;BME280;36278;47.952;21.714;2022-08-20T04:46:36;99713.75;;;22.69;75.75
43071;BME280;36278;47.952;21.714;2022-08-20T04:49:03;99717.06;;;22.71;75.77
43071;BME280;36278;47.952;21.714;2022-08-20T04:51:30;99722.91;;;22.75;75.98
43071;BME280;36278;47.952;21.714;2022-08-20T04:53:56;99718.09;;;22.77;75.82
43071;BME280;36278;47.952;21.714;2022-08-20T04:56:25;99713.53;;;22.77;75.82
43071;BME280;36278;47.952;21.714;2022-08-20T04:58:52;99714.19;;;22.86;75.65
43071;BME280;36278;47.952;21.714;2022-08-20T05:01:19;99702.97;;;22.89;75.45
43071;BME280;36278;47.952;21.714;2022-08-20T05:03:44;99712.91;;;22.95;75.33
43071;BME280;36278;47.952;21.714;2022-08-20T05:06:12;99701.28;;;22.94;75.19
43071;BME280;36278;47.952;21.714;2022-08-20T05:08:38;99699.59;;;23.00;75.07
43071;BME280;36278;47.952;21.714;2022-08-20T05:11:05;99701.66;;;23.05;75.33
43071;BME280;36278;47.952;21.714;2022-08-20T05:13:31;99693.75;;;23.10;74.72
43071;BME280;36278;47.952;21.714;2022-08-20T05:15:57;99690.00;;;23.17;74.65
43071;BME280;36278;47.952;21.714;2022-08-20T05:18:26;99686.66;;;23.22;74.39
43071;BME280;36278;47.952;21.714;2022-08-20T05:20:52;99680.63;;;23.20;74.29
43071;BME280;36278;47.952;21.714;2022-08-20T05:23:19;99677.09;;;23.19;74.79
43071;BME280;36278;47.952;21.714;2022-08-20T05:25:47;99672.09;;;23.30;74.43
43071;BME280;36278;47.952;21.714;2022-08-20T05:28:25;99673.69;;;23.37;73.94
43071;BME280;36278;47.952;21.714;2022-08-20T05:30:52;99672.41;;;23.46;74.28
43071;BME280;36278;47.952;21.714;2022-08-20T05:33:20;99665.53;;;23.50;73.86
43071;BME280;36278;47.952;21.714;2022-08-20T05:35:48;99652.41;;;23.54;73.72
43071;BME280;36278;47.952;21.714;2022-08-20T05:38:16;99651.56;;;23.60;73.32
43071;BME280;36278;47.952;21.714;2022-08-20T05:40:43;99642.13;;;23.69;73.16
43071;BME280;36278;47.952;21.714;2022-08-20T05:43:09;99643.16;;;23.75;73.05
43071;BME280;36278;47.952;21.714;2022-08-20T05:45:38;99650.56;;;23.86;73.36
43071;BME280;36278;47.952;21.714;2022-08-20T05:48:13;99661.56;;;23.91;72.48
43071;BME280;36278;47.952;21.714;2022-08-20T05:50:41;99664.41;;;24.03;72.01
43071;BME280;36278;47.952;21.714;2022-08-20T05:53:07;99672.41;;;24.16;71.80
43071;BME280;36278;47.952;21.714;2022-08-20T05:55:33;99679.19;;;24.25;70.86
43071;BME280;36278;47.952;21.714;2022-08-20T05:58:04;99685.25;;;24.27;70.86
43071;BME280;36278;47.952;21.714;2022-08-20T06:00:31;99687.91;;;24.34;70.99
43071;BME280;36278;47.952;21.714;2022-08-20T06:02:57;99688.41;;;24.49;71.01
43071;BME280;36278;47.952;21.714;2022-08-20T06:05:42;99693.31;;;24.59;70.04
43071;BME280;36278;47.952;21.714;2022-08-20T06:08:08;99698.91;;;24.64;69.25
43071;BME280;36278;47.952;21.714;2022-08-20T06:10:35;99691.91;;;24.75;69.21
43071;BME280;36278;47.952;21.714;2022-08-20T06:13:01;99702.47;;;24.83;68.15
43071;BME280;36278;47.952;21.714;2022-08-20T06:15:30;99700.28;;;24.92;68.33
43071;BME280;36278;47.952;21.714;2022-08-20T06:17:56;99709.31;;;25.10;67.74
43071;BME280;36278;47.952;21.714;2022-08-20T06:20:22;99724.22;;;25.20;67.43
43071;BME280;36278;47.952;21.714;2022-08-20T06:22:47;99724.34;;;25.25;66.68
43071;BME280;36278;47.952;21.714;2022-08-20T06:25:13;99723.00;;;25.34;66.82
43071;BME280;36278;47.952;21.714;2022-08-20T06:27:40;99730.44;;;25.38;66.14
43071;BME280;36278;47.952;21.714;2022-08-20T06:30:09;99730.44;;;25.38;65.72
43071;BME280;36278;47.952;21.714;2022-08-20T06:32:35;99734.50;;;25.48;66.68
43071;BME280;36278;47.952;21.714;2022-08-20T06:35:03;99723.97;;;25.58;65.69
43071;BME280;36278;47.952;21.714;2022-08-20T06:37:31;99717.16;;;25.67;65.65
43071;BME280;36278;47.952;21.714;2022-08-20T06:40:00;99722.06;;;25.77;65.29
43071;BME280;36278;47.952;21.714;2022-08-20T06:42:27;99719.16;;;25.90;64.18
43071;BME280;36278;47.952;21.714;2022-08-20T06:44:52;99709.19;;;26.02;64.10
43071;BME280;36278;47.952;21.714;2022-08-20T06:47:19;99717.38;;;26.25;63.41
43071;BME280;36278;47.952;21.714;2022-08-20T06:49:46;99721.19;;;26.36;62.60
43071;BME280;36278;47.952;21.714;2022-08-20T06:52:12;99726.06;;;26.46;61.87
43071;BME280;36278;47.952;21.714;2022-08-20T06:54:38;99724.19;;;26.70;62.04
43071;BME280;36278;47.952;21.714;2022-08-20T06:57:04;99720.28;;;26.77;60.87
43071;BME280;36278;47.952;21.714;2022-08-20T06:59:29;99728.31;;;26.96;60.48
43071;BME280;36278;47.952;21.714;2022-08-20T07:01:55;99732.97;;;27.07;60.13
43071;BME280;36278;47.952;21.714;2022-08-20T07:04:24;99724.66;;;27.02;60.96
43071;BME280;36278;47.952;21.714;2022-08-20T07:06:54;99736.28;;;27.09;60.75
43071;BME280;36278;47.952;21.714;2022-08-20T07:09:22;99730.34;;;27.12;59.50
43071;BME280;36278;47.952;21.714;2022-08-20T07:11:47;99733.41;;;27.27;58.94
43071;BME280;36278;47.952;21.714;2022-08-20T07:14:15;99731.38;;;27.46;58.97
43071;BME280;36278;47.952;21.714;2022-08-20T07:16:41;99732.88;;;27.54;58.63
43071;BME280;36278;47.952;21.714;2022-08-20T07:19:06;99740.97;;;27.77;57.11
43071;BME280;36278;47.952;21.714;2022-08-20T07:21:33;99744.25;;;27.91;56.87
43071;BME280;36278;47.952;21.714;2022-08-20T07:23:58;99747.25;;;28.06;55.91
43071;BME280;36278;47.952;21.714;2022-08-20T07:26:24;99741.72;;;28.18;56.25
43071;BME280;36278;47.952;21.714;2022-08-20T07:28:49;99746.66;;;28.33;55.70
43071;BME280;36278;47.952;21.714;2022-08-20T07:31:15;99746.66;;;28.33;55.46
43071;BME280;36278;47.952;21.714;2022-08-20T07:33:59;99750.06;;;28.40;55.45
43071;BME280;36278;47.952;21.714;2022-08-20T07:36:25;99754.38;;;28.53;55.03
43071;BME280;36278;47.952;21.714;2022-08-20T07:38:51;99752.38;;;28.65;54.74
43071;BME280;36278;47.952;21.714;2022-08-20T07:41:17;99744.53;;;28.68;54.14
43071;BME280;36278;47.952;21.714;2022-08-20T07:43:43;99758.16;;;28.85;53.06
43071;BME280;36278;47.952;21.714;2022-08-20T07:46:14;99754.53;;;28.96;53.71
43071;BME280;36278;47.952;21.714;2022-08-20T07:48:42;99756.81;;;29.04;53.47
43071;BME280;36278;47.952;21.714;2022-08-20T07:51:12;99744.84;;;29.06;52.70
43071;BME280;36278;47.952;21.714;2022-08-20T07:53:39;99752.94;;;29.17;52.77
43071;BME280;36278;47.952;21.714;2022-08-20T07:56:14;99750.25;;;29.22;51.99
43071;BME280;36278;47.952;21.714;2022-08-20T07:58:44;99745.47;;;29.13;51.89
43071;BME280;36278;47.952;21.714;2022-08-20T08:01:16;99740.38;;;29.16;52.11
43071;BME280;36278;47.952;21.714;2022-08-20T08:03:42;99736.94;;;29.26;52.15
43071;BME280;36278;47.952;21.714;2022-08-20T08:06:08;99732.88;;;29.28;51.55
43071;BME280;36278;47.952;21.714;2022-08-20T08:08:36;99730.84;;;29.19;52.36
43071;BME280;36278;47.952;21.714;2022-08-20T08:11:02;99738.91;;;29.30;52.02
43071;BME280;36278;47.952;21.714;2022-08-20T08:13:34;99729.81;;;29.47;52.27
43071;BME280;36278;47.952;21.714;2022-08-20T08:16:04;99726.50;;;29.62;51.56
43071;BME280;36278;47.952;21.714;2022-08-20T08:18:38;99726.31;;;29.68;51.16
43071;BME280;36278;47.952;21.714;2022-08-20T08:21:06;99734.28;;;29.75;50.86
43071;BME280;36278;47.952;21.714;2022-08-20T08:23:32;99731.81;;;29.73;50.67
43071;BME280;36278;47.952;21.714;2022-08-20T08:25:59;99729.41;;;29.77;50.49
43071;BME280;36278;47.952;21.714;2022-08-20T08:28:25;99738.25;;;29.89;50.47
43071;BME280;36278;47.952;21.714;2022-08-20T08:30:52;99724.47;;;30.01;50.47
43071;BME280;36278;47.952;21.714;2022-08-20T08:33:20;99725.41;;;30.11;50.44
43071;BME280;36278;47.952;21.714;2022-08-20T08:36:04;99725.47;;;30.17;49.78
43071;BME280;36278;47.952;21.714;2022-08-20T08:38:34;99722.56;;;30.01;50.19
43071;BME280;36278;47.952;21.714;2022-08-20T08:41:25;99732.31;;;29.97;49.68
43071;BME280;36278;47.952;21.714;2022-08-20T08:43:51;99732.03;;;30.16;49.73
43071;BME280;36278;47.952;21.714;2022-08-20T08:46:22;99727.19;;;30.28;50.26
43071;BME280;36278;47.952;21.714;2022-08-20T08:48:50;99728.16;;;30.43;49.31
43071;BME280;36278;47.952;21.714;2022-08-20T08:51:27;99718.97;;;30.60;48.80
43071;BME280;36278;47.952;21.714;2022-08-20T08:53:54;99720.00;;;30.49;49.40
43071;BME280;36278;47.952;21.714;2022-08-20T08:56:25;99704.66;;;30.42;48.54
43071;BME280;36278;47.952;21.714;2022-08-20T08:58:51;99695.53;;;30.32;50.26
43071;BME280;36278;47.952;21.714;2022-08-20T09:01:21;99693.78;;;30.53;49.80
43071;BME280;36278;47.952;21.714;2022-08-20T09:03:49;99694.78;;;30.74;49.27
43071;BME280;36278;47.952;21.714;2022-08-20T09:06:21;99692.97;;;30.89;48.61
43071;BME280;36278;47.952;21.714;2022-08-20T09:08:56;99686.19;;;31.02;48.70
43071;BME280;36278;47.952;21.714;2022-08-20T09:11:23;99680.03;;;30.75;48.24
43071;BME280;36278;47.952;21.714;2022-08-20T09:13:50;99685.03;;;30.88;48.49
43071;BME280;36278;47.952;21.714;2022-08-20T09:16:18;99683.47;;;31.07;47.84
43071;BME280;36278;47.952;21.714;2022-08-20T09:18:44;99668.94;;;31.02;47.61
43071;BME280;36278;47.952;21.714;2022-08-20T09:21:10;99666.63;;;31.25;47.57
43071;BME280;36278;47.952;21.714;2022-08-20T09:23:36;99666.69;;;31.41;47.84
43071;BME280;36278;47.952;21.714;2022-08-20T09:26:02;99664.53;;;31.53;46.64
43071;BME280;36278;47.952;21.714;2022-08-20T09:28:27;99651.97;;;31.62;46.87
43071;BME280;36278;47.952;21.714;2022-08-20T09:30:53;99652.16;;;31.35;47.29
43071;BME280;36278;47.952;21.714;2022-08-20T09:33:19;99654.38;;;31.43;48.05
43071;BME280;36278;47.952;21.714;2022-08-20T09:35:45;99646.19;;;31.48;46.96
43071;BME280;36278;47.952;21.714;2022-08-20T09:38:11;99650.28;;;31.51;46.79
43071;BME280;36278;47.952;21.714;2022-08-20T09:40:37;99645.09;;;31.49;46.78
43071;BME280;36278;47.952;21.714;2022-08-20T09:43:07;99649.22;;;31.62;46.75
43071;BME280;36278;47.952;21.714;2022-08-20T09:45:33;99652.75;;;31.47;47.56
43071;BME280;36278;47.952;21.714;2022-08-20T09:47:59;99653.28;;;31.49;46.32
43071;BME280;36278;47.952;21.714;2022-08-20T09:50:26;99657.16;;;31.53;47.20
43071;BME280;36278;47.952;21.714;2022-08-20T09:52:53;99658.00;;;31.74;46.83
43071;BME280;36278;47.952;21.714;2022-08-20T09:55:33;99661.34;;;31.82;45.84
43071;BME280;36278;47.952;21.714;2022-08-20T09:58:02;99657.50;;;31.93;45.96
43071;BME280;36278;47.952;21.714;2022-08-20T10:00:28;99662.16;;;32.07;45.58
43071;BME280;36278;47.952;21.714;2022-08-20T10:02:53;99666.84;;;32.12;44.91
43071;BME280;36278;47.952;21.714;2022-08-20T10:05:19;99666.56;;;32.08;45.11
43071;BME280;36278;47.952;21.714;2022-08-20T10:07:44;99679.47;;;32.18;44.50
43071;BME280;36278;47.952;21.714;2022-08-20T10:10:12;99678.91;;;32.31;44.62
43071;BME280;36278;47.952;21.714;2022-08-20T10:12:38;99676.16;;;32.42;44.44
43071;BME280;36278;47.952;21.714;2022-08-20T10:15:06;99676.19;;;32.52;43.84
43071;BME280;36278;47.952;21.714;2022-08-20T10:17:32;99668.50;;;32.54;42.76
43071;BME280;36278;47.952;21.714;2022-08-20T10:19:57;99683.28;;;32.68;43.42
43071;BME280;36278;47.952;21.714;2022-08-20T10:22:23;99676.69;;;32.84;42.89
43071;BME280;36278;47.952;21.714;2022-08-20T10:24:49;99673.06;;;33.04;42.34
43071;BME280;36278;47.952;21.714;2022-08-20T10:27:15;99676.31;;;33.11;43.01
43071;BME280;36278;47.952;21.714;2022-08-20T10:29:40;99678.25;;;33.16;42.95
43071;BME280;36278;47.952;21.714;2022-08-20T10:32:09;99683.53;;;32.92;43.54
43071;BME280;36278;47.952;21.714;2022-08-20T10:34:37;99676.41;;;32.91;43.55
43071;BME280;36278;47.952;21.714;2022-08-20T10:37:03;99674.16;;;32.98;43.05
43071;BME280;36278;47.952;21.714;2022-08-20T10:39:28;99670.91;;;32.81;43.74
43071;BME280;36278;47.952;21.714;2022-08-20T10:41:54;99657.69;;;32.98;42.71
43071;BME280;36278;47.952;21.714;2022-08-20T10:44:19;99667.56;;;33.04;42.26
43071;BME280;36278;47.952;21.714;2022-08-20T10:46:45;99647.00;;;33.02;42.06
43071;BME280;36278;47.952;21.714;2022-08-20T10:49:10;99649.66;;;33.22;42.49
43071;BME280;36278;47.952;21.714;2022-08-20T10:51:36;99657.34;;;33.25;42.64
43071;BME280;36278;47.952;21.714;2022-08-20T10:54:02;99643.56;;;33.35;41.72
43071;BME280;36278;47.952;21.714;2022-08-20T10:56:27;99646.53;;;33.49;41.91
43071;BME280;36278;47.952;21.714;2022-08-20T10:58:53;99644.56;;;33.55;41.82
43071;BME280;36278;47.952;21.714;2022-08-20T11:01:19;99645.59;;;33.64;41.41
43071;BME280;36278;47.952;21.714;2022-08-20T11:03:45;99639.28;;;33.68;41.20
43071;BME280;36278;47.952;21.714;2022-08-20T11:06:10;99641.09;;;33.83;41.06
43071;BME280;36278;47.952;21.714;2022-08-20T11:08:36;99626.25;;;33.89;41.02
43071;BME280;36278;47.952;21.714;2022-08-20T11:11:03;99603.91;;;33.96;40.08
43071;BME280;36278;47.952;21.714;2022-08-20T11:13:29;99603.75;;;34.16;40.19
43071;BME280;36278;47.952;21.714;2022-08-20T11:15:54;99598.19;;;33.92;39.95
43071;BME280;36278;47.952;21.714;2022-08-20T11:18:20;99599.81;;;33.88;40.25
43071;BME280;36278;47.952;21.714;2022-08-20T11:20:45;99579.66;;;34.03;39.93
43071;BME280;36278;47.952;21.714;2022-08-20T11:23:11;99577.22;;;34.31;39.74
43071;BME280;36278;47.952;21.714;2022-08-20T11:25:36;99583.75;;;34.64;39.14
43071;BME280;36278;47.952;21.714;2022-08-20T11:28:03;99582.38;;;34.85;38.89
43071;BME280;36278;47.952;21.714;2022-08-20T11:30:32;99591.69;;;35.13;38.75
43071;BME280;36278;47.952;21.714;2022-08-20T11:32:59;99584.25;;;35.14;39.73
43071;BME280;36278;47.952;21.714;2022-08-20T11:35:26;99576.69;;;35.43;38.44
43071;BME280;36278;47.952;21.714;2022-08-20T11:37:53;99569.41;;;35.52;38.31
43071;BME280;36278;47.952;21.714;2022-08-20T11:40:20;99565.22;;;35.55;37.61
43071;BME280;36278;47.952;21.714;2022-08-20T11:42:46;99571.00;;;34.97;38.56
43071;BME280;36278;47.952;21.714;2022-08-20T11:45:12;99563.94;;;34.85;38.75
43071;BME280;36278;47.952;21.714;2022-08-20T11:47:38;99567.94;;;34.74;38.98
43071;BME280;36278;47.952;21.714;2022-08-20T11:50:09;99556.78;;;34.37;39.57
43071;BME280;36278;47.952;21.714;2022-08-20T11:52:35;99548.31;;;34.04;39.55
43071;BME280;36278;47.952;21.714;2022-08-20T11:55:01;99562.38;;;33.63;41.12
43071;BME280;36278;47.952;21.714;2022-08-20T11:57:29;99565.56;;;33.41;41.14
43071;BME280;36278;47.952;21.714;2022-08-20T11:59:58;99569.59;;;33.05;41.87
43071;BME280;36278;47.952;21.714;2022-08-20T12:02:25;99567.66;;;33.10;41.95
43071;BME280;36278;47.952;21.714;2022-08-20T12:04:51;99563.31;;;34.17;40.51
43071;BME280;36278;47.952;21.714;2022-08-20T12:07:22;99560.63;;;34.65;39.28
43071;BME280;36278;47.952;21.714;2022-08-20T12:09:48;99559.09;;;34.77;38.95
43071;BME280;36278;47.952;21.714;2022-08-20T12:12:14;99559.16;;;34.96;38.68
43071;BME280;36278;47.952;21.714;2022-08-20T12:14:40;99559.28;;;35.99;37.06
43071;BME280;36278;47.952;21.714;2022-08-20T12:17:09;99550.44;;;37.12;35.11
43071;BME280;36278;47.952;21.714;2022-08-20T12:19:40;99546.22;;;37.28;34.87
43071;BME280;36278;47.952;21.714;2022-08-20T12:22:06;99553.06;;;36.67;35.77
43071;BME280;36278;47.952;21.714;2022-08-20T12:24:32;99555.41;;;35.81;36.74
43071;BME280;36278;47.952;21.714;2022-08-20T12:27:17;99554.47;;;35.72;37.25
43071;BME280;36278;47.952;21.714;2022-08-20T12:29:46;99557.94;;;35.45;37.17
43071;BME280;36278;47.952;21.714;2022-08-20T12:32:12;99557.19;;;35.21;37.25
43071;BME280;36278;47.952;21.714;2022-08-20T12:34:40;99548.75;;;34.45;38.34
43071;BME280;36278;47.952;21.714;2022-08-20T12:37:16;99571.09;;;34.10;39.58
43071;BME280;36278;47.952;21.714;2022-08-20T12:39:44;99593.69;;;33.62;41.06
43071;BME280;36278;47.952;21.714;2022-08-20T12:42:11;99587.16;;;33.09;43.17
43071;BME280;36278;47.952;21.714;2022-08-20T12:44:37;99599.97;;;32.08;44.90
43071;BME280;36278;47.952;21.714;2022-08-20T12:49:31;99612.25;;;30.87;47.44
43071;BME280;36278;47.952;21.714;2022-08-20T12:51:57;99608.16;;;30.84;47.62
43071;BME280;36278;47.952;21.714;2022-08-20T12:54:22;99602.94;;;30.83;47.57
43071;BME280;36278;47.952;21.714;2022-08-20T12:56:47;99595.09;;;30.54;48.22